createdAt,value
2023-05-14T00:01:03.822Z,70.33
2023-05-14T00:03:37.065Z,69.89
2023-05-14T00:06:10.948Z,69.95
2023-05-14T00:08:42.738Z,70.17
2023-05-14T00:11:14.697Z,70.38
2023-05-14T00:13:46.432Z,70.46
2023-05-14T00:16:18.416Z,70.40
2023-05-14T00:18:50.339Z,70.84
2023-05-14T00:21:22.131Z,70.94
2023-05-14T00:23:53.986Z,70.61
2023-05-14T00:26:25.879Z,70.59
2023-05-14T00:28:57.746Z,70.61
2023-05-14T00:31:29.696Z,71.18
2023-05-14T00:34:01.510Z,71.22
2023-05-14T00:36:33.521Z,71.10
2023-05-14T00:39:05.475Z,71.14
2023-05-14T00:41:37.413Z,71.07
2023-05-14T00:44:09.323Z,71.15
2023-05-14T00:46:41.200Z,71.19
2023-05-14T00:49:13.068Z,71.30
2023-05-14T00:51:47.006Z,71.17
2023-05-14T00:54:19.739Z,71.43
2023-05-14T00:56:51.610Z,71.53
2023-05-14T00:59:23.422Z,71.65
2023-05-14T01:01:55.482Z,72.02
2023-05-14T01:04:27.672Z,71.90
2023-05-14T01:07:09.757Z,72.20
2023-05-14T01:09:45.788Z,71.98
2023-05-14T01:12:22.870Z,72.03
2023-05-14T01:14:59.031Z,72.48
2023-05-14T01:17:32.563Z,72.68
2023-05-14T01:20:05.342Z,72.82
2023-05-14T01:22:37.741Z,72.34
2023-05-14T01:25:11.503Z,72.52
2023-05-14T01:27:47.608Z,72.41
2023-05-14T01:30:23.392Z,72.21
2023-05-14T01:32:57.865Z,72.19
2023-05-14T01:35:30.748Z,72.43
2023-05-14T01:38:05.265Z,72.67
2023-05-14T01:40:38.853Z,72.55
2023-05-14T01:43:11.736Z,72.50
2023-05-14T01:45:44.872Z,72.86
2023-05-14T01:48:16.794Z,72.25
2023-05-14T01:50:48.751Z,72.33
2023-05-14T01:53:21.012Z,72.41
2023-05-14T01:55:52.936Z,72.57
2023-05-14T01:58:24.885Z,72.25
2023-05-14T02:00:56.771Z,73.03
2023-05-14T02:03:28.949Z,72.43
2023-05-14T02:06:00.894Z,72.24
2023-05-14T02:08:32.719Z,72.41
2023-05-14T02:11:04.631Z,72.70
2023-05-14T02:13:37.526Z,72.66
2023-05-14T02:16:10.532Z,72.67
2023-05-14T02:18:42.424Z,72.88
2023-05-14T02:21:14.281Z,72.87
2023-05-14T02:23:46.049Z,72.96
2023-05-14T02:26:17.834Z,73.03
2023-05-14T02:28:49.724Z,72.83
2023-05-14T02:31:21.545Z,73.18
2023-05-14T02:33:53.363Z,72.97
2023-05-14T02:36:25.185Z,73.42
2023-05-14T02:38:57.029Z,73.25
2023-05-14T02:41:29.377Z,73.54
2023-05-14T02:44:01.140Z,73.30
2023-05-14T02:46:33.515Z,73.58
2023-05-14T02:49:06.916Z,73.54
2023-05-14T02:51:38.779Z,73.65
2023-05-14T02:54:10.572Z,73.86
2023-05-14T02:56:42.373Z,73.84
2023-05-14T02:59:14.548Z,74.10
2023-05-14T03:01:47.258Z,73.90
2023-05-14T03:04:19.666Z,73.94
2023-05-14T03:06:51.599Z,74.17
2023-05-14T03:09:23.344Z,73.73
2023-05-14T03:11:56.129Z,73.98
2023-05-14T03:14:28.110Z,73.73
2023-05-14T03:17:00.178Z,73.88
2023-05-14T03:19:32.063Z,74.15
2023-05-14T03:22:04.067Z,73.89
2023-05-14T03:24:36.470Z,73.97
2023-05-14T03:27:08.818Z,74.00
2023-05-14T03:29:40.610Z,73.91
2023-05-14T03:32:12.759Z,73.59
2023-05-14T03:34:45.082Z,73.95
2023-05-14T03:37:16.984Z,73.82
2023-05-14T03:39:48.850Z,73.74
2023-05-14T03:42:20.706Z,73.93
2023-05-14T03:44:52.858Z,73.59
2023-05-14T03:47:24.661Z,73.68
2023-05-14T03:49:57.881Z,73.63
2023-05-14T03:52:29.719Z,73.70
2023-05-14T03:55:01.461Z,73.54
2023-05-14T03:57:33.417Z,73.71
2023-05-14T04:00:05.419Z,73.81
2023-05-14T04:02:48.551Z,74.16
2023-05-14T04:05:20.965Z,74.08
2023-05-14T04:07:53.054Z,74.13
2023-05-14T04:10:25.615Z,74.18
2023-05-14T04:12:58.708Z,74.21
2023-05-14T04:15:35.814Z,73.77
2023-05-14T04:18:08.167Z,73.57
2023-05-14T04:20:40.658Z,73.04
2023-05-14T04:23:12.779Z,73.25
2023-05-14T04:25:44.805Z,73.73
2023-05-14T04:28:16.730Z,74.08
2023-05-14T04:30:48.542Z,73.44
2023-05-14T04:33:20.440Z,73.35
2023-05-14T04:35:52.789Z,73.72
2023-05-14T04:38:24.597Z,73.76
2023-05-14T04:40:57.056Z,73.47
2023-05-14T04:43:28.812Z,73.70
2023-05-14T04:46:00.720Z,72.94
2023-05-14T04:48:32.815Z,72.84
2023-05-14T04:51:06.966Z,71.75
2023-05-14T04:53:39.073Z,71.16
2023-05-14T04:56:11.118Z,70.82
2023-05-14T04:58:42.973Z,71.03
2023-05-14T05:01:15.738Z,71.01
2023-05-14T05:03:48.138Z,70.58
2023-05-14T05:06:22.579Z,70.30
2023-05-14T05:08:54.631Z,69.21
2023-05-14T05:11:26.394Z,68.90
2023-05-14T05:13:58.181Z,68.77
2023-05-14T05:16:31.698Z,68.05
2023-05-14T05:19:03.753Z,67.29
2023-05-14T05:21:35.660Z,66.20
2023-05-14T05:24:08.201Z,66.03
2023-05-14T05:26:40.094Z,65.64
2023-05-14T05:29:12.009Z,65.43
2023-05-14T05:31:44.223Z,65.19
2023-05-14T05:34:16.432Z,65.32
2023-05-14T05:36:48.256Z,64.27
2023-05-14T05:39:20.046Z,64.07
2023-05-14T05:41:52.013Z,64.09
2023-05-14T05:44:23.757Z,63.87
2023-05-14T05:46:57.394Z,63.44
2023-05-14T05:49:29.536Z,63.21
2023-05-14T05:52:01.355Z,62.17
2023-05-14T05:54:33.534Z,61.51
2023-05-14T05:57:05.572Z,60.82
2023-05-14T05:59:37.729Z,60.59
2023-05-14T06:02:09.705Z,60.53
2023-05-14T06:04:42.065Z,60.10
2023-05-14T06:07:14.224Z,59.72
2023-05-14T06:09:46.506Z,58.91
2023-05-14T06:12:18.419Z,59.08
2023-05-14T06:14:50.264Z,58.86
2023-05-14T06:17:22.269Z,57.82
2023-05-14T06:19:54.230Z,56.30
2023-05-14T06:22:25.996Z,55.13
2023-05-14T06:24:57.915Z,53.89
2023-05-14T06:27:29.801Z,51.76
2023-05-14T06:30:01.732Z,48.75
2023-05-14T06:32:33.656Z,45.90
2023-05-14T06:35:06.650Z,44.45
2023-05-14T06:37:38.598Z,42.49
2023-05-14T06:40:13.185Z,39.73
2023-05-14T06:42:45.029Z,38.98
2023-05-14T06:45:16.885Z,37.73
2023-05-14T06:47:49.092Z,35.78
2023-05-14T06:50:21.905Z,35.66
2023-05-14T06:52:54.027Z,33.72
2023-05-14T06:55:26.128Z,33.83
2023-05-14T06:57:57.908Z,31.78
2023-05-14T07:00:31.288Z,31.52
2023-05-14T07:03:03.087Z,30.29
2023-05-14T07:05:35.080Z,30.81
2023-05-14T07:08:07.363Z,30.48
2023-05-14T07:10:40.033Z,30.49
2023-05-14T07:13:12.918Z,29.82
2023-05-14T07:15:44.842Z,29.81
2023-05-14T07:18:16.961Z,28.45
2023-05-14T07:20:48.881Z,26.97
2023-05-14T07:23:20.746Z,27.22
2023-05-14T07:25:53.210Z,27.02
2023-05-14T07:28:25.062Z,26.78
2023-05-14T07:30:57.023Z,26.63
2023-05-14T07:33:29.034Z,26.71
2023-05-14T07:36:00.842Z,26.56
2023-05-14T07:38:32.805Z,27.09
2023-05-14T07:41:05.077Z,26.17
2023-05-14T07:43:38.514Z,24.98
2023-05-14T07:46:08.881Z,23.41
2023-05-14T07:48:40.801Z,23.49
2023-05-14T07:51:13.055Z,23.19
2023-05-14T07:53:44.968Z,22.29
2023-05-14T07:56:16.907Z,21.92
2023-05-14T07:58:48.742Z,22.63
2023-05-14T08:01:20.877Z,22.94
2023-05-14T08:03:52.981Z,23.50
2023-05-14T08:06:27.645Z,22.91
2023-05-14T08:08:59.611Z,23.39
2023-05-14T08:11:31.399Z,23.73
2023-05-14T08:14:03.373Z,23.61
2023-05-14T08:16:35.553Z,24.30
2023-05-14T08:19:07.459Z,24.63
2023-05-14T08:21:39.932Z,25.61
2023-05-14T08:24:12.415Z,26.56
2023-05-14T08:26:44.193Z,25.58
2023-05-14T08:29:16.656Z,25.71
2023-05-14T08:31:49.347Z,25.25
2023-05-14T08:34:21.336Z,26.01
2023-05-14T08:36:53.155Z,26.37
2023-05-14T08:39:24.973Z,26.05
2023-05-14T08:41:58.407Z,25.42
2023-05-14T08:44:34.988Z,26.04
2023-05-14T08:47:07.195Z,26.35
2023-05-14T08:49:45.047Z,27.41
2023-05-14T08:52:18.946Z,25.94
2023-05-14T08:54:52.646Z,26.58
2023-05-14T08:57:24.977Z,26.19
2023-05-14T08:59:57.386Z,25.47
2023-05-14T09:02:31.309Z,26.81
2023-05-14T09:05:04.544Z,26.73
2023-05-14T09:07:36.569Z,27.22
2023-05-14T09:10:10.579Z,26.19
2023-05-14T09:12:42.587Z,26.13
2023-05-14T09:15:14.759Z,27.03
2023-05-14T09:17:48.084Z,26.46
2023-05-14T09:20:20.096Z,25.94
2023-05-14T09:22:56.756Z,26.61
2023-05-14T09:25:30.820Z,26.82
2023-05-14T09:28:02.704Z,26.56
2023-05-14T09:30:37.155Z,25.67
2023-05-14T09:33:10.527Z,25.67
2023-05-14T09:35:43.590Z,25.64
2023-05-14T09:38:15.609Z,25.21
2023-05-14T09:40:48.844Z,26.05
2023-05-14T09:43:20.934Z,26.39
2023-05-14T09:45:52.834Z,26.29
2023-05-14T09:48:24.749Z,26.43
2023-05-14T09:50:56.673Z,25.77
2023-05-14T09:53:28.586Z,26.18
2023-05-14T09:56:00.719Z,26.36
2023-05-14T09:58:32.483Z,26.07
2023-05-14T10:01:04.746Z,26.10
2023-05-14T10:03:37.478Z,24.82
2023-05-14T10:06:10.744Z,25.43
2023-05-14T10:08:45.346Z,25.40
2023-05-14T10:11:22.426Z,25.50
2023-05-14T10:14:00.380Z,26.07
2023-05-14T10:16:35.519Z,25.69
2023-05-14T10:19:11.568Z,26.17
2023-05-14T10:21:46.352Z,26.51
2023-05-14T10:24:18.950Z,26.44
2023-05-14T10:26:51.210Z,27.16
2023-05-14T10:29:23.333Z,27.16
2023-05-14T10:31:56.489Z,27.60
2023-05-14T10:34:41.274Z,26.51
2023-05-14T10:37:15.576Z,26.39
2023-05-14T10:39:50.578Z,26.14
2023-05-14T10:42:25.214Z,26.22
2023-05-14T10:44:59.007Z,25.46
2023-05-14T10:47:31.268Z,26.28
2023-05-14T10:50:05.592Z,26.08
2023-05-14T10:52:37.991Z,26.07
2023-05-14T10:55:13.477Z,25.46
2023-05-14T10:57:47.291Z,25.39
2023-05-14T11:00:20.725Z,26.07
2023-05-14T11:02:52.673Z,25.19
2023-05-14T11:05:27.646Z,25.18
2023-05-14T11:08:00.661Z,25.31
2023-05-14T11:10:32.515Z,24.70
2023-05-14T11:13:04.454Z,25.15
2023-05-14T11:15:36.468Z,25.15
2023-05-14T11:18:08.348Z,25.36
2023-05-14T11:20:40.598Z,25.21
2023-05-14T11:23:12.584Z,25.12
2023-05-14T11:25:45.487Z,26.19
2023-05-14T11:28:17.835Z,26.16
2023-05-14T11:30:50.038Z,26.52
2023-05-14T11:33:22.332Z,25.61
2023-05-14T11:35:54.216Z,25.37
2023-05-14T11:38:26.091Z,25.53
2023-05-14T11:40:59.317Z,25.15
2023-05-14T11:43:31.202Z,25.33
2023-05-14T11:46:03.063Z,25.40
2023-05-14T11:48:35.061Z,25.56
2023-05-14T11:51:07.195Z,26.06
2023-05-14T11:53:39.034Z,25.54
2023-05-14T11:56:11.465Z,25.61
2023-05-14T11:58:48.322Z,25.96
2023-05-14T12:01:20.283Z,25.93
2023-05-14T12:03:54.347Z,25.40
2023-05-14T12:06:33.239Z,25.39
2023-05-14T12:09:07.789Z,25.55
2023-05-14T12:11:40.258Z,25.71
2023-05-14T12:14:17.781Z,25.37
2023-05-14T12:16:49.954Z,25.53
2023-05-14T12:19:23.591Z,25.83
2023-05-14T12:21:53.984Z,25.11
2023-05-14T12:24:28.400Z,25.56
2023-05-14T12:27:04.270Z,25.56
2023-05-14T12:29:39.881Z,25.05
2023-05-14T12:32:12.329Z,25.01
2023-05-14T12:34:44.134Z,25.11
2023-05-14T12:37:15.960Z,25.48
2023-05-14T12:39:47.811Z,26.01
2023-05-14T12:42:20.232Z,25.29
2023-05-14T12:44:52.567Z,25.17
2023-05-14T12:47:24.636Z,24.52
2023-05-14T12:49:56.556Z,24.84
2023-05-14T12:52:37.866Z,25.10
2023-05-14T12:55:12.270Z,25.33
2023-05-14T12:57:44.426Z,25.08
2023-05-14T13:00:17.451Z,25.14
2023-05-14T13:02:49.285Z,25.11
2023-05-14T13:05:21.478Z,25.33
2023-05-14T13:07:55.130Z,25.06
2023-05-14T13:10:26.866Z,24.58
2023-05-14T13:12:58.762Z,24.65
2023-05-14T13:15:31.753Z,25.12
2023-05-14T13:18:03.817Z,25.01
2023-05-14T13:20:35.833Z,24.63
2023-05-14T13:23:07.616Z,24.65
2023-05-14T13:25:39.459Z,24.43
2023-05-14T13:28:11.313Z,24.50
2023-05-14T13:30:43.316Z,24.19
2023-05-14T13:33:15.117Z,24.77
2023-05-14T13:35:46.971Z,24.74
2023-05-14T13:38:18.744Z,25.20
2023-05-14T13:40:50.580Z,25.69
2023-05-14T13:43:22.420Z,26.07
2023-05-14T13:45:54.284Z,26.14
2023-05-14T13:48:27.127Z,26.43
2023-05-14T13:50:59.291Z,26.44
2023-05-14T13:53:31.615Z,26.93
2023-05-14T13:56:03.509Z,26.60
2023-05-14T13:58:35.476Z,26.67
2023-05-14T14:01:07.778Z,26.50
2023-05-14T14:03:39.806Z,26.67
2023-05-14T14:06:11.914Z,26.78
2023-05-14T14:08:43.846Z,26.92
2023-05-14T14:11:16.930Z,27.14
2023-05-14T14:13:48.751Z,26.87
2023-05-14T14:16:20.959Z,27.22
2023-05-14T14:18:52.936Z,27.00
2023-05-14T14:21:25.035Z,26.96
2023-05-14T14:23:56.910Z,27.18
2023-05-14T14:26:29.345Z,27.46
2023-05-14T14:29:01.369Z,27.35
2023-05-14T14:31:34.602Z,27.44
2023-05-14T14:34:06.483Z,27.58
2023-05-14T14:36:38.239Z,27.64
2023-05-14T14:39:10.778Z,27.88
2023-05-14T14:41:42.645Z,27.08
2023-05-14T14:44:15.022Z,26.70
2023-05-14T14:46:46.971Z,26.73
2023-05-14T14:49:18.944Z,26.89
2023-05-14T14:51:50.826Z,26.67
2023-05-14T14:54:22.679Z,27.25
2023-05-14T14:56:54.927Z,26.80
2023-05-14T14:59:26.862Z,26.66
2023-05-14T15:01:58.675Z,26.71
2023-05-14T15:04:34.149Z,26.38
2023-05-14T15:07:06.465Z,25.79
2023-05-14T15:09:38.791Z,25.80
2023-05-14T15:12:11.311Z,25.50
2023-05-14T15:14:43.760Z,25.92
2023-05-14T15:17:15.751Z,26.17
2023-05-14T15:19:47.629Z,26.03
2023-05-14T15:22:19.456Z,26.43
2023-05-14T15:24:52.333Z,26.18
2023-05-14T15:27:24.178Z,25.88
2023-05-14T15:29:56.115Z,25.65
2023-05-14T15:32:28.541Z,25.91
2023-05-14T15:35:01.196Z,25.71
2023-05-14T15:37:38.819Z,25.98
2023-05-14T15:40:12.273Z,26.39
2023-05-14T15:42:44.989Z,26.28
2023-05-14T15:45:17.046Z,26.47
2023-05-14T15:47:48.971Z,26.19
2023-05-14T15:50:20.877Z,26.08
2023-05-14T15:52:52.976Z,26.11
2023-05-14T15:55:25.033Z,26.48
2023-05-14T15:57:56.997Z,26.86
2023-05-14T16:00:28.877Z,26.97
2023-05-14T16:03:00.860Z,27.32
2023-05-14T16:05:32.798Z,27.36
2023-05-14T16:08:04.601Z,27.66
2023-05-14T16:10:36.390Z,27.81
2023-05-14T16:13:08.069Z,28.01
2023-05-14T16:15:39.833Z,27.98
2023-05-14T16:18:11.811Z,28.31
2023-05-14T16:20:43.633Z,28.18
2023-05-14T16:23:15.443Z,28.61
2023-05-14T16:25:47.454Z,28.61
2023-05-14T16:28:19.366Z,28.37
2023-05-14T16:30:51.051Z,28.36
2023-05-14T16:33:22.877Z,28.47
2023-05-14T16:35:54.827Z,28.74
2023-05-14T16:38:26.641Z,28.46
2023-05-14T16:40:58.584Z,28.62
2023-05-14T16:43:30.274Z,28.90
2023-05-14T16:46:02.064Z,28.71
2023-05-14T16:48:33.816Z,29.05
2023-05-14T16:51:05.678Z,29.18
2023-05-14T16:53:37.394Z,29.27
2023-05-14T16:56:11.088Z,29.50
2023-05-14T16:58:43.054Z,29.58
2023-05-14T17:01:14.830Z,29.56
2023-05-14T17:03:46.864Z,29.64
2023-05-14T17:06:18.829Z,29.80
2023-05-14T17:08:50.721Z,29.74
2023-05-14T17:11:24.197Z,29.49
2023-05-14T17:14:03.964Z,29.47
2023-05-14T17:16:35.969Z,29.85
2023-05-14T17:19:06.773Z,29.80
2023-05-14T17:21:38.568Z,30.09
2023-05-14T17:24:10.687Z,29.97
2023-05-14T17:26:42.610Z,30.32
2023-05-14T17:29:14.461Z,30.22
2023-05-14T17:31:46.266Z,30.64
2023-05-14T17:34:18.941Z,30.67
2023-05-14T17:36:50.847Z,30.65
2023-05-14T17:39:22.612Z,30.70
2023-05-14T17:41:54.380Z,30.99
2023-05-14T17:44:26.251Z,31.88
2023-05-14T17:46:58.118Z,31.80
2023-05-14T17:49:29.980Z,32.38
2023-05-14T17:52:01.920Z,32.56
2023-05-14T17:54:33.737Z,32.49
2023-05-14T17:57:06.054Z,32.31
2023-05-14T17:59:37.883Z,32.73
2023-05-14T18:02:09.944Z,33.41
2023-05-14T18:04:41.846Z,33.80
2023-05-14T18:07:13.684Z,33.95
2023-05-14T18:09:45.557Z,34.26
2023-05-14T18:12:17.363Z,34.14
2023-05-14T18:14:49.248Z,34.79
2023-05-14T18:17:21.109Z,35.13
2023-05-14T18:19:53.033Z,35.29
2023-05-14T18:22:28.176Z,36.40
2023-05-14T18:25:02.453Z,37.45
2023-05-14T18:27:34.206Z,37.56
2023-05-14T18:30:07.439Z,37.72
2023-05-14T18:32:39.389Z,38.14
2023-05-14T18:35:14.472Z,38.72
2023-05-14T18:37:46.250Z,39.19
2023-05-14T18:40:18.974Z,39.73
2023-05-14T18:42:51.003Z,40.10
2023-05-14T18:45:24.430Z,40.47
2023-05-14T18:47:56.586Z,40.22
2023-05-14T18:50:29.010Z,40.69
2023-05-14T18:53:01.079Z,40.89
2023-05-14T18:55:33.109Z,41.52
2023-05-14T18:58:04.994Z,42.15
2023-05-14T19:00:37.040Z,42.10
2023-05-14T19:03:09.041Z,42.43
2023-05-14T19:05:41.417Z,42.53
2023-05-14T19:08:15.675Z,42.82
2023-05-14T19:10:47.664Z,42.72
2023-05-14T19:13:19.534Z,43.45
2023-05-14T19:15:51.696Z,43.44
2023-05-14T19:18:23.578Z,43.55
2023-05-14T19:20:57.002Z,43.35
2023-05-14T19:23:31.182Z,43.49
2023-05-14T19:26:04.092Z,43.67
2023-05-14T19:28:38.071Z,43.21
2023-05-14T19:31:10.038Z,42.92
2023-05-14T19:33:42.037Z,43.18
2023-05-14T19:36:14.018Z,43.01
2023-05-14T19:38:46.398Z,43.82
2023-05-14T19:41:18.164Z,44.21
2023-05-14T19:43:50.103Z,44.12
2023-05-14T19:46:22.095Z,43.87
2023-05-14T19:48:53.955Z,43.65
2023-05-14T19:51:26.350Z,43.56
2023-05-14T19:53:58.530Z,43.88
2023-05-14T19:56:30.467Z,43.61
2023-05-14T19:59:02.317Z,43.83
2023-05-14T20:01:35.887Z,44.10
2023-05-14T20:04:07.356Z,43.82
2023-05-14T20:06:40.359Z,43.88
2023-05-14T20:09:12.924Z,44.22
2023-05-14T20:11:44.694Z,44.62
2023-05-14T20:14:16.538Z,44.27
2023-05-14T20:16:49.127Z,44.16
2023-05-14T20:19:22.518Z,44.26
2023-05-14T20:21:54.470Z,44.26
2023-05-14T20:24:26.410Z,44.29
2023-05-14T20:26:58.174Z,44.23
2023-05-14T20:29:30.024Z,44.29
2023-05-14T20:32:01.791Z,44.18
2023-05-14T20:34:33.528Z,44.44
2023-05-14T20:37:06.811Z,44.53
2023-05-14T20:39:38.734Z,44.61
2023-05-14T20:42:10.767Z,44.60
2023-05-14T20:44:42.660Z,44.61
2023-05-14T20:47:17.857Z,44.71
2023-05-14T20:49:49.770Z,45.02
2023-05-14T20:52:22.315Z,44.84
2023-05-14T20:54:54.132Z,45.10
2023-05-14T20:57:26.146Z,45.18
2023-05-14T20:59:57.938Z,45.43
2023-05-14T21:02:30.070Z,45.27
2023-05-14T21:05:03.125Z,45.41
2023-05-14T21:07:36.531Z,45.48
2023-05-14T21:10:10.207Z,45.80
2023-05-14T21:12:42.812Z,45.86
2023-05-14T21:15:16.572Z,45.83
2023-05-14T21:17:48.415Z,45.91
2023-05-14T21:20:20.567Z,46.01
2023-05-14T21:22:52.385Z,46.00
2023-05-14T21:25:25.115Z,46.33
2023-05-14T21:27:57.211Z,46.42
2023-05-14T21:30:28.991Z,46.63
2023-05-14T21:33:00.871Z,46.83
2023-05-14T21:35:32.824Z,46.78
2023-05-14T21:38:04.767Z,46.72
2023-05-14T21:40:36.785Z,47.07
2023-05-14T21:43:08.743Z,47.08
2023-05-14T21:45:40.699Z,47.01
2023-05-14T21:48:12.483Z,47.16
2023-05-14T21:50:44.325Z,47.48
2023-05-14T21:53:16.339Z,47.22
2023-05-14T21:55:49.987Z,47.33
2023-05-14T21:58:21.936Z,47.49
2023-05-14T22:00:53.982Z,47.67
2023-05-14T22:03:25.889Z,47.71
2023-05-14T22:05:57.941Z,47.82
2023-05-14T22:08:31.213Z,47.63
2023-05-14T22:11:03.720Z,47.69
2023-05-14T22:13:37.671Z,48.00
2023-05-14T22:16:13.758Z,47.81
2023-05-14T22:18:47.279Z,48.08
2023-05-14T22:21:19.174Z,48.03
2023-05-14T22:23:51.105Z,48.01
2023-05-14T22:26:22.917Z,48.00
2023-05-14T22:28:55.601Z,48.08
2023-05-14T22:31:27.449Z,47.73
2023-05-14T22:33:59.291Z,47.95
2023-05-14T22:36:31.089Z,47.81
2023-05-14T22:39:03.006Z,47.69
2023-05-14T22:41:34.922Z,47.62
2023-05-14T22:44:06.745Z,47.73
2023-05-14T22:46:38.591Z,47.62
2023-05-14T22:49:10.374Z,47.42
2023-05-14T22:51:42.419Z,47.35
2023-05-14T22:54:14.155Z,47.37
2023-05-14T22:56:46.506Z,47.31
2023-05-14T22:59:18.359Z,47.37
2023-05-14T23:01:50.161Z,47.16
2023-05-14T23:04:22.352Z,47.08
2023-05-14T23:06:54.220Z,47.37
2023-05-14T23:09:26.146Z,47.24
2023-05-14T23:11:57.938Z,46.96
2023-05-14T23:14:29.706Z,46.75
2023-05-14T23:17:01.783Z,46.72
2023-05-14T23:19:33.552Z,46.88
2023-05-14T23:22:05.561Z,46.62
2023-05-14T23:24:37.473Z,46.66
2023-05-14T23:27:09.647Z,46.66
2023-05-14T23:29:41.425Z,46.61
2023-05-14T23:32:13.324Z,46.60
2023-05-14T23:34:45.223Z,46.42
2023-05-14T23:37:17.036Z,46.35
2023-05-14T23:39:48.872Z,46.28
2023-05-14T23:42:20.721Z,46.22
2023-05-14T23:44:52.568Z,46.22
2023-05-14T23:47:24.403Z,46.11
2023-05-14T23:49:56.410Z,45.97
2023-05-14T23:52:28.248Z,46.16
2023-05-14T23:55:00.160Z,45.90
2023-05-14T23:57:32.074Z,45.78
